Main page
METAR-TAF:

METAR-TAF

Airports :

Belize City, Belize

Philip S. W. Goldson International Airport

latitude: 17-32N, longitude: 088-18W, elevation: 5 m

Current weather observation

The report was made 7 minutes ago, at 16:00 UTC
Wind 7 kt from the East
Temperature 31°C
Humidity 66%
Pressure 1015 hPa
Visibility 10 km or more
Broken clouds at a height of 2300 ft

METAR: MZBZ 251600Z 10007KT 9999 BKN023 31/24 A2998 Q1015 NOSIG

Time: 10:07 (16:07 UTC)

Forecast

The report was made 7 hours and 7 minutes ago, at 09:00 UTC
Forecast valid from 25 at 12 UTC to 26 at 12 UTC
Wind 10 kt from the East
Visibility 10 km or more
Scattered clouds at a height of 2300 ft

TAF: MZBZ 250900Z 2512/2612 09010KT 9999 SCT023

Weather observations and forecasts of more than 4000 airports (METAR and TAF reports).

The available stations are represented by yellow and red dots on the map.

Hover mouse over dot to see the name of the station.

Then click to see weather observations and forecasts.

To change the map : click on the green buttons with a black cross to zoom in, on the green button with a dash to zoom out, or on the green arrows for adjacent maps.


METAR-TAF: